KTUSKSDL

Guest
Details From KTUS - Tucson Intl
To KSDL - SCOTTSDALE
Flight Number -
Tags generated
Created
Modified
Stats Distance 105 nm / 195 km
Max Altitude 10,600 ft / 3,231 m
Waypoints 3
Social Downloads 1
Likes 0
Share VATSIM

Download

Looking for another format? Having issues loading an existing format? Contact us
Advertisement - Login to hide

Notes

Basic altitude profile: - Ascent Rate: 500ft/min - Ascent Speed: 80kts - Cruise Altitude: 50ft - Cruise Speed: 110kts - Descent Rate: 500ft/min - Descent Speed: 75kts Options: - Use NATs: yes - Use PACOTS: yes - Use low airways: no - Use high airways: yes

Route

KTUS TOTEC KSDL

ID Type Via Altitude Latitude Longitude Leg Dist Tot Dist Heading (true) Name
O KTUS APT - 0 ft / 0 m 32.11686˚ -110.94215˚ - 0 nm - Tucson Intl
TOTEC FIX - 10,600 ft / 3,231 m 32.82662˚ -111.64220˚ 55 nm 55 nm 320° / 320° -
O KSDL APT - 0 ft / 0 m 33.62288˚ -111.91053˚ 49 nm 105 nm 344° / 344° SCOTTSDALE

Altitude Profile

Advertisement - Login to hide

KTUS

Details ICAO KTUS (TUS)
Name Tucson Intl
Region United States
Timezone America/Phoenix (UTC-7.0)
Stats Elevation 2,643 ft / 806 m (AMSL)
Location 32.116858° -110.942155°
Runways 3
Magnetic Variation 9.789° E

METAR

KTUS 120553Z 12011KT 10SM CLR 17/M07 A3027 RMK AO2 SLP218 T01721067 10206 20144 53005

Decode

TAF

TAF KTUS 120520Z 1206/1306 14005KT P6SM SCT150 BKN200 FM120800 13011KT P6SM SCT150 BKN200 FM121600 15015G23KT P6SM SCT200 FM130000 11009KT P6SM SCT200

Decode

Departure Runways

ID Width Length Bearing (true) Bearing (mag) Surface Threshold Offset Overrun Length
03 150 ft / 46 m 7,004 ft / 2,135 m 44.90° 35.11° Asphalt 841 ft / 256 m 0 ft / 0 m
11L 150 ft / 46 m 11,000 ft / 3,353 m 135.16° 125.37° Asphalt 0 ft / 0 m 3,257 ft / 993 m
11R 75 ft / 23 m 8,412 ft / 2,564 m 135.16° 125.37° Asphalt 1,410 ft / 430 m 0 ft / 0 m
21 150 ft / 46 m 7,004 ft / 2,135 m 224.91° 215.12° Asphalt 0 ft / 0 m 0 ft / 0 m
29L 75 ft / 23 m 8,412 ft / 2,564 m 315.17° 305.38° Asphalt 0 ft / 0 m 0 ft / 0 m
29R 150 ft / 46 m 11,000 ft / 3,353 m 315.17° 305.38° Asphalt 0 ft / 0 m 1,000 ft / 305 m

KSDL

Details ICAO KSDL (ZSY)
Name SCOTTSDALE
Region United States
Timezone America/Phoenix (UTC-7.0)
Stats Elevation 1,510 ft / 460 m (AMSL)
Location 33.622881° -111.910535°
Runways 1
Magnetic Variation 10.314° E

METAR

KSDL 120553Z 03003KT 10SM CLR 11/M08 A3023 RMK AO2 SLP225 T01111083 10222 20111 53005

Decode

TAF

KSDL 120520Z 1206/1306 VRB05KT P6SM SCT250 FM121800 07008G18KT P6SM SCT250 FM122300 07004KT P6SM BKN250

Decode

Destination Runways

ID Width Length Bearing (true) Bearing (mag) Surface Threshold Offset Overrun Length
03 100 ft / 30 m 8,253 ft / 2,516 m 43.82° 33.51° Asphalt 740 ft / 226 m 0 ft / 0 m
21 100 ft / 30 m 8,253 ft / 2,516 m 223.83° 213.52° Asphalt 400 ft / 122 m 0 ft / 0 m

Popular Alternatives